Terminal Aerodrome Forecast
Issued by NWS Memphis, TN

Home | Current Version | Previous Version | Text Only | Print | Product List | Glossary On
Versions: 1 2 3 4 5 6 7 8 9 10 11 12 13 14 15 16 17 18 19 20 21 22 23 24 25 26 27 28 29 30 31 32 33 34
415
FTUS44 KMEG 230908 AAA
TAFMEM
TAF AMD
KMEM 230908Z 2309/2406 19005KT P6SM SCT250
      TEMPO 2314/2316 BKN018
     FM231600 18008KT P6SM FEW025 SCT250
     FM231800 18011G17KT P6SM FEW040 BKN250
     FM240200 18012KT P6SM SCT200 WS020/19040KT=

USA.gov is the U.S. government's official web portal to all federal, state and local government web resources and services.